sensor_id;sensor_type;location;lat;lon;timestamp;P1;durP1;ratioP1;P2;durP2;ratioP2
39776;SDS011;25453;48.162;14.510;2023-06-22T00:01:20;2.17;;;0.88;;
39776;SDS011;25453;48.162;14.510;2023-06-22T00:03:51;2.15;;;0.95;;
39776;SDS011;25453;48.162;14.510;2023-06-22T00:06:18;1.92;;;0.60;;
39776;SDS011;25453;48.162;14.510;2023-06-22T00:08:46;2.00;;;0.90;;
39776;SDS011;25453;48.162;14.510;2023-06-22T00:11:13;1.45;;;0.70;;
39776;SDS011;25453;48.162;14.510;2023-06-22T00:13:40;2.72;;;0.80;;
39776;SDS011;25453;48.162;14.510;2023-06-22T00:16:08;2.20;;;0.82;;
39776;SDS011;25453;48.162;14.510;2023-06-22T00:18:35;1.98;;;1.05;;
39776;SDS011;25453;48.162;14.510;2023-06-22T00:21:02;2.50;;;0.85;;
39776;SDS011;25453;48.162;14.510;2023-06-22T00:23:29;1.23;;;0.88;;
39776;SDS011;25453;48.162;14.510;2023-06-22T00:26:01;1.00;;;0.65;;
39776;SDS011;25453;48.162;14.510;2023-06-22T00:28:29;2.75;;;1.17;;
39776;SDS011;25453;48.162;14.510;2023-06-22T00:30:57;1.55;;;0.70;;
39776;SDS011;25453;48.162;14.510;2023-06-22T00:33:24;2.38;;;0.73;;
39776;SDS011;25453;48.162;14.510;2023-06-22T00:35:51;3.08;;;0.90;;
39776;SDS011;25453;48.162;14.510;2023-06-22T00:38:21;3.38;;;0.85;;
39776;SDS011;25453;48.162;14.510;2023-06-22T00:40:48;2.55;;;1.00;;
39776;SDS011;25453;48.162;14.510;2023-06-22T00:43:16;1.38;;;0.70;;
39776;SDS011;25453;48.162;14.510;2023-06-22T00:45:43;1.80;;;0.75;;
39776;SDS011;25453;48.162;14.510;2023-06-22T00:48:10;2.70;;;0.75;;
39776;SDS011;25453;48.162;14.510;2023-06-22T00:50:39;3.05;;;0.80;;
39776;SDS011;25453;48.162;14.510;2023-06-22T00:53:07;1.65;;;0.93;;
39776;SDS011;25453;48.162;14.510;2023-06-22T00:55:42;2.17;;;0.90;;
39776;SDS011;25453;48.162;14.510;2023-06-22T00:58:12;1.63;;;0.88;;
39776;SDS011;25453;48.162;14.510;2023-06-22T01:00:40;2.53;;;0.85;;
39776;SDS011;25453;48.162;14.510;2023-06-22T01:03:08;1.65;;;0.73;;
39776;SDS011;25453;48.162;14.510;2023-06-22T01:05:37;2.28;;;1.45;;
39776;SDS011;25453;48.162;14.510;2023-06-22T01:10:51;2.08;;;0.82;;
39776;SDS011;25453;48.162;14.510;2023-06-22T01:16:18;2.53;;;1.20;;
39776;SDS011;25453;48.162;14.510;2023-06-22T01:18:50;4.35;;;1.25;;
39776;SDS011;25453;48.162;14.510;2023-06-22T01:21:22;2.92;;;1.10;;
39776;SDS011;25453;48.162;14.510;2023-06-22T01:24:02;2.10;;;1.08;;
39776;SDS011;25453;48.162;14.510;2023-06-22T01:26:38;2.80;;;1.20;;
39776;SDS011;25453;48.162;14.510;2023-06-22T01:29:14;3.28;;;0.90;;
39776;SDS011;25453;48.162;14.510;2023-06-22T01:31:42;2.70;;;1.20;;
39776;SDS011;25453;48.162;14.510;2023-06-22T01:34:11;1.65;;;0.90;;
39776;SDS011;25453;48.162;14.510;2023-06-22T01:36:40;2.33;;;0.80;;
39776;SDS011;25453;48.162;14.510;2023-06-22T01:39:08;2.08;;;0.95;;
39776;SDS011;25453;48.162;14.510;2023-06-22T01:41:37;1.50;;;0.90;;
39776;SDS011;25453;48.162;14.510;2023-06-22T01:44:05;2.47;;;1.00;;
39776;SDS011;25453;48.162;14.510;2023-06-22T01:46:34;1.35;;;0.73;;
39776;SDS011;25453;48.162;14.510;2023-06-22T01:49:02;2.45;;;1.00;;
39776;SDS011;25453;48.162;14.510;2023-06-22T01:51:31;1.92;;;0.77;;
39776;SDS011;25453;48.162;14.510;2023-06-22T01:53:58;4.25;;;1.20;;
39776;SDS011;25453;48.162;14.510;2023-06-22T01:56:26;1.25;;;0.80;;
39776;SDS011;25453;48.162;14.510;2023-06-22T01:59:10;2.08;;;1.08;;
39776;SDS011;25453;48.162;14.510;2023-06-22T02:01:43;2.55;;;1.10;;
39776;SDS011;25453;48.162;14.510;2023-06-22T02:04:34;3.45;;;1.25;;
39776;SDS011;25453;48.162;14.510;2023-06-22T02:07:08;2.05;;;0.98;;
39776;SDS011;25453;48.162;14.510;2023-06-22T02:09:39;1.85;;;0.70;;
39776;SDS011;25453;48.162;14.510;2023-06-22T02:12:13;4.10;;;0.88;;
39776;SDS011;25453;48.162;14.510;2023-06-22T02:14:45;1.67;;;0.90;;
39776;SDS011;25453;48.162;14.510;2023-06-22T02:17:13;1.90;;;0.90;;
39776;SDS011;25453;48.162;14.510;2023-06-22T02:19:41;2.08;;;0.82;;
39776;SDS011;25453;48.162;14.510;2023-06-22T02:22:08;2.33;;;0.85;;
39776;SDS011;25453;48.162;14.510;2023-06-22T02:24:36;1.50;;;0.65;;
39776;SDS011;25453;48.162;14.510;2023-06-22T02:27:05;2.90;;;0.85;;
39776;SDS011;25453;48.162;14.510;2023-06-22T02:29:33;1.55;;;0.80;;
39776;SDS011;25453;48.162;14.510;2023-06-22T02:32:00;2.83;;;0.90;;
39776;SDS011;25453;48.162;14.510;2023-06-22T02:34:28;3.75;;;1.25;;
39776;SDS011;25453;48.162;14.510;2023-06-22T02:36:55;2.88;;;1.00;;
39776;SDS011;25453;48.162;14.510;2023-06-22T02:39:23;2.17;;;1.10;;
39776;SDS011;25453;48.162;14.510;2023-06-22T02:41:51;1.65;;;0.80;;
39776;SDS011;25453;48.162;14.510;2023-06-22T02:44:20;4.57;;;1.13;;
39776;SDS011;25453;48.162;14.510;2023-06-22T02:46:47;1.63;;;0.93;;
39776;SDS011;25453;48.162;14.510;2023-06-22T02:49:15;3.10;;;1.05;;
39776;SDS011;25453;48.162;14.510;2023-06-22T02:51:44;4.47;;;1.25;;
39776;SDS011;25453;48.162;14.510;2023-06-22T02:54:12;3.85;;;1.55;;
39776;SDS011;25453;48.162;14.510;2023-06-22T02:56:40;1.85;;;0.77;;
39776;SDS011;25453;48.162;14.510;2023-06-22T02:59:10;2.55;;;1.05;;
39776;SDS011;25453;48.162;14.510;2023-06-22T03:01:37;2.33;;;0.90;;
39776;SDS011;25453;48.162;14.510;2023-06-22T03:04:07;2.75;;;0.80;;
39776;SDS011;25453;48.162;14.510;2023-06-22T03:06:35;2.17;;;1.05;;
39776;SDS011;25453;48.162;14.510;2023-06-22T03:09:03;1.77;;;0.90;;
39776;SDS011;25453;48.162;14.510;2023-06-22T03:11:32;2.33;;;1.30;;
39776;SDS011;25453;48.162;14.510;2023-06-22T03:14:03;2.67;;;1.40;;
39776;SDS011;25453;48.162;14.510;2023-06-22T03:16:30;2.03;;;0.95;;
39776;SDS011;25453;48.162;14.510;2023-06-22T03:18:57;3.47;;;1.17;;
39776;SDS011;25453;48.162;14.510;2023-06-22T03:21:26;2.45;;;1.20;;
39776;SDS011;25453;48.162;14.510;2023-06-22T03:23:55;1.73;;;0.90;;
39776;SDS011;25453;48.162;14.510;2023-06-22T03:26:22;2.15;;;0.80;;
39776;SDS011;25453;48.162;14.510;2023-06-22T03:28:53;2.05;;;1.17;;
39776;SDS011;25453;48.162;14.510;2023-06-22T03:31:20;2.33;;;1.05;;
39776;SDS011;25453;48.162;14.510;2023-06-22T03:33:48;1.90;;;0.90;;
39776;SDS011;25453;48.162;14.510;2023-06-22T03:36:17;2.03;;;0.95;;
39776;SDS011;25453;48.162;14.510;2023-06-22T03:38:49;2.75;;;1.00;;
39776;SDS011;25453;48.162;14.510;2023-06-22T03:41:17;3.47;;;1.00;;
39776;SDS011;25453;48.162;14.510;2023-06-22T03:43:44;2.53;;;1.23;;
39776;SDS011;25453;48.162;14.510;2023-06-22T03:46:11;2.03;;;0.70;;
39776;SDS011;25453;48.162;14.510;2023-06-22T03:48:38;3.13;;;1.10;;
39776;SDS011;25453;48.162;14.510;2023-06-22T03:51:06;1.88;;;1.00;;
39776;SDS011;25453;48.162;14.510;2023-06-22T03:53:33;1.50;;;0.85;;
39776;SDS011;25453;48.162;14.510;2023-06-22T03:56:00;1.83;;;0.90;;
39776;SDS011;25453;48.162;14.510;2023-06-22T03:58:27;1.35;;;0.90;;
39776;SDS011;25453;48.162;14.510;2023-06-22T04:00:59;2.83;;;1.00;;
39776;SDS011;25453;48.162;14.510;2023-06-22T04:03:27;1.80;;;0.73;;
39776;SDS011;25453;48.162;14.510;2023-06-22T04:05:54;1.77;;;0.90;;
39776;SDS011;25453;48.162;14.510;2023-06-22T04:08:21;2.13;;;0.80;;
39776;SDS011;25453;48.162;14.510;2023-06-22T04:10:48;1.52;;;0.73;;
39776;SDS011;25453;48.162;14.510;2023-06-22T04:13:16;1.38;;;0.50;;
39776;SDS011;25453;48.162;14.510;2023-06-22T04:15:43;2.22;;;0.65;;
39776;SDS011;25453;48.162;14.510;2023-06-22T04:18:10;1.85;;;0.90;;
39776;SDS011;25453;48.162;14.510;2023-06-22T04:20:37;2.58;;;0.95;;
39776;SDS011;25453;48.162;14.510;2023-06-22T04:23:04;2.17;;;0.75;;
39776;SDS011;25453;48.162;14.510;2023-06-22T04:25:32;1.85;;;0.40;;
39776;SDS011;25453;48.162;14.510;2023-06-22T04:28:01;1.83;;;0.77;;
39776;SDS011;25453;48.162;14.510;2023-06-22T04:30:29;1.50;;;0.68;;
39776;SDS011;25453;48.162;14.510;2023-06-22T04:32:58;1.30;;;0.57;;
39776;SDS011;25453;48.162;14.510;2023-06-22T04:35:25;1.10;;;0.70;;
39776;SDS011;25453;48.162;14.510;2023-06-22T04:37:55;1.25;;;0.60;;
39776;SDS011;25453;48.162;14.510;2023-06-22T04:40:24;1.83;;;0.70;;
39776;SDS011;25453;48.162;14.510;2023-06-22T04:42:53;1.58;;;0.77;;
39776;SDS011;25453;48.162;14.510;2023-06-22T04:45:20;1.30;;;0.70;;
39776;SDS011;25453;48.162;14.510;2023-06-22T04:47:48;3.30;;;0.73;;
39776;SDS011;25453;48.162;14.510;2023-06-22T04:50:15;1.52;;;0.80;;
39776;SDS011;25453;48.162;14.510;2023-06-22T04:52:44;1.73;;;0.70;;
39776;SDS011;25453;48.162;14.510;2023-06-22T04:55:12;1.63;;;0.60;;
39776;SDS011;25453;48.162;14.510;2023-06-22T04:57:45;1.00;;;0.60;;
39776;SDS011;25453;48.162;14.510;2023-06-22T05:00:16;1.73;;;0.80;;
39776;SDS011;25453;48.162;14.510;2023-06-22T05:02:49;2.10;;;0.75;;
39776;SDS011;25453;48.162;14.510;2023-06-22T05:05:17;3.83;;;0.90;;
39776;SDS011;25453;48.162;14.510;2023-06-22T05:07:49;2.10;;;0.90;;
39776;SDS011;25453;48.162;14.510;2023-06-22T05:10:19;3.58;;;0.98;;
39776;SDS011;25453;48.162;14.510;2023-06-22T05:12:47;2.00;;;0.70;;
39776;SDS011;25453;48.162;14.510;2023-06-22T05:15:14;2.78;;;0.82;;
39776;SDS011;25453;48.162;14.510;2023-06-22T05:17:41;1.70;;;0.70;;
39776;SDS011;25453;48.162;14.510;2023-06-22T05:20:12;2.00;;;0.80;;
39776;SDS011;25453;48.162;14.510;2023-06-22T05:22:39;1.90;;;0.82;;
39776;SDS011;25453;48.162;14.510;2023-06-22T05:25:08;1.73;;;0.70;;
39776;SDS011;25453;48.162;14.510;2023-06-22T05:27:37;2.13;;;0.80;;
39776;SDS011;25453;48.162;14.510;2023-06-22T05:30:06;1.75;;;0.80;;
39776;SDS011;25453;48.162;14.510;2023-06-22T05:32:35;1.52;;;1.00;;
39776;SDS011;25453;48.162;14.510;2023-06-22T05:35:03;3.80;;;1.52;;
39776;SDS011;25453;48.162;14.510;2023-06-22T05:37:31;4.13;;;1.58;;
39776;SDS011;25453;48.162;14.510;2023-06-22T05:39:58;5.90;;;1.98;;
39776;SDS011;25453;48.162;14.510;2023-06-22T05:42:25;3.42;;;1.67;;
39776;SDS011;25453;48.162;14.510;2023-06-22T05:44:53;5.25;;;1.73;;
39776;SDS011;25453;48.162;14.510;2023-06-22T05:47:20;5.05;;;2.20;;
39776;SDS011;25453;48.162;14.510;2023-06-22T05:49:49;4.88;;;2.10;;
39776;SDS011;25453;48.162;14.510;2023-06-22T05:52:16;4.30;;;1.63;;
39776;SDS011;25453;48.162;14.510;2023-06-22T05:54:43;4.68;;;1.85;;
39776;SDS011;25453;48.162;14.510;2023-06-22T05:57:11;4.55;;;2.20;;
39776;SDS011;25453;48.162;14.510;2023-06-22T05:59:38;4.75;;;2.08;;
39776;SDS011;25453;48.162;14.510;2023-06-22T06:02:05;5.03;;;2.58;;
39776;SDS011;25453;48.162;14.510;2023-06-22T06:04:33;5.00;;;2.35;;
39776;SDS011;25453;48.162;14.510;2023-06-22T06:07:01;6.22;;;2.42;;
39776;SDS011;25453;48.162;14.510;2023-06-22T06:09:28;5.53;;;3.13;;
39776;SDS011;25453;48.162;14.510;2023-06-22T06:11:56;8.35;;;2.55;;
39776;SDS011;25453;48.162;14.510;2023-06-22T06:14:23;6.63;;;2.92;;
39776;SDS011;25453;48.162;14.510;2023-06-22T06:16:50;5.28;;;2.60;;
39776;SDS011;25453;48.162;14.510;2023-06-22T06:19:17;8.40;;;2.95;;
39776;SDS011;25453;48.162;14.510;2023-06-22T06:21:44;7.07;;;2.60;;
39776;SDS011;25453;48.162;14.510;2023-06-22T06:24:12;7.97;;;2.67;;
39776;SDS011;25453;48.162;14.510;2023-06-22T06:26:40;6.82;;;3.28;;
39776;SDS011;25453;48.162;14.510;2023-06-22T06:29:09;7.13;;;2.92;;
39776;SDS011;25453;48.162;14.510;2023-06-22T06:31:36;7.60;;;3.08;;
39776;SDS011;25453;48.162;14.510;2023-06-22T06:34:03;5.50;;;2.88;;
39776;SDS011;25453;48.162;14.510;2023-06-22T06:36:31;6.60;;;3.30;;
39776;SDS011;25453;48.162;14.510;2023-06-22T06:38:58;4.57;;;2.70;;
39776;SDS011;25453;48.162;14.510;2023-06-22T06:41:25;4.65;;;2.10;;
39776;SDS011;25453;48.162;14.510;2023-06-22T06:43:52;6.28;;;2.10;;
39776;SDS011;25453;48.162;14.510;2023-06-22T06:46:19;5.68;;;2.60;;
39776;SDS011;25453;48.162;14.510;2023-06-22T06:48:47;6.65;;;2.60;;
39776;SDS011;25453;48.162;14.510;2023-06-22T06:51:14;7.70;;;2.47;;
39776;SDS011;25453;48.162;14.510;2023-06-22T06:53:41;8.30;;;2.90;;
39776;SDS011;25453;48.162;14.510;2023-06-22T06:56:09;9.20;;;3.28;;
39776;SDS011;25453;48.162;14.510;2023-06-22T06:58:40;6.97;;;2.90;;
39776;SDS011;25453;48.162;14.510;2023-06-22T07:01:08;7.10;;;3.03;;
39776;SDS011;25453;48.162;14.510;2023-06-22T07:03:36;4.18;;;2.40;;
39776;SDS011;25453;48.162;14.510;2023-06-22T07:06:03;7.00;;;2.65;;
39776;SDS011;25453;48.162;14.510;2023-06-22T07:08:30;5.05;;;2.67;;
39776;SDS011;25453;48.162;14.510;2023-06-22T07:10:57;3.97;;;2.30;;
39776;SDS011;25453;48.162;14.510;2023-06-22T07:13:25;5.60;;;2.42;;
39776;SDS011;25453;48.162;14.510;2023-06-22T07:15:52;4.78;;;2.85;;
39776;SDS011;25453;48.162;14.510;2023-06-22T07:18:19;3.40;;;2.10;;
39776;SDS011;25453;48.162;14.510;2023-06-22T07:20:47;4.35;;;2.08;;
39776;SDS011;25453;48.162;14.510;2023-06-22T07:23:14;4.40;;;2.22;;
39776;SDS011;25453;48.162;14.510;2023-06-22T07:25:41;4.28;;;2.53;;
39776;SDS011;25453;48.162;14.510;2023-06-22T07:28:08;4.30;;;1.98;;
39776;SDS011;25453;48.162;14.510;2023-06-22T07:30:35;5.35;;;2.20;;
39776;SDS011;25453;48.162;14.510;2023-06-22T07:33:03;7.80;;;3.22;;
39776;SDS011;25453;48.162;14.510;2023-06-22T07:35:33;6.38;;;3.00;;
39776;SDS011;25453;48.162;14.510;2023-06-22T07:38:00;6.13;;;2.13;;
39776;SDS011;25453;48.162;14.510;2023-06-22T07:40:31;6.18;;;2.70;;
39776;SDS011;25453;48.162;14.510;2023-06-22T07:42:59;5.28;;;2.67;;
39776;SDS011;25453;48.162;14.510;2023-06-22T07:45:26;6.53;;;2.90;;
39776;SDS011;25453;48.162;14.510;2023-06-22T07:47:53;7.45;;;3.40;;
39776;SDS011;25453;48.162;14.510;2023-06-22T07:50:21;8.00;;;2.60;;
39776;SDS011;25453;48.162;14.510;2023-06-22T07:52:48;5.82;;;2.92;;
39776;SDS011;25453;48.162;14.510;2023-06-22T07:55:15;6.13;;;2.83;;
39776;SDS011;25453;48.162;14.510;2023-06-22T07:57:43;4.55;;;2.15;;
39776;SDS011;25453;48.162;14.510;2023-06-22T08:00:10;4.28;;;2.20;;
39776;SDS011;25453;48.162;14.510;2023-06-22T08:02:41;9.20;;;2.47;;
39776;SDS011;25453;48.162;14.510;2023-06-22T08:05:12;5.70;;;2.03;;
39776;SDS011;25453;48.162;14.510;2023-06-22T08:08:00;6.47;;;2.72;;
39776;SDS011;25453;48.162;14.510;2023-06-22T08:10:28;8.90;;;3.05;;
39776;SDS011;25453;48.162;14.510;2023-06-22T08:12:55;6.85;;;2.42;;
39776;SDS011;25453;48.162;14.510;2023-06-22T08:15:22;6.32;;;3.30;;
39776;SDS011;25453;48.162;14.510;2023-06-22T08:17:49;9.18;;;2.95;;
39776;SDS011;25453;48.162;14.510;2023-06-22T08:20:19;4.60;;;2.45;;
39776;SDS011;25453;48.162;14.510;2023-06-22T08:22:46;7.90;;;2.95;;
39776;SDS011;25453;48.162;14.510;2023-06-22T08:25:13;7.68;;;3.00;;
39776;SDS011;25453;48.162;14.510;2023-06-22T08:27:44;6.25;;;2.95;;
39776;SDS011;25453;48.162;14.510;2023-06-22T08:30:13;8.40;;;2.95;;
39776;SDS011;25453;48.162;14.510;2023-06-22T08:32:41;7.47;;;3.15;;
39776;SDS011;25453;48.162;14.510;2023-06-22T08:35:08;8.40;;;2.97;;
39776;SDS011;25453;48.162;14.510;2023-06-22T08:37:36;6.15;;;2.88;;
39776;SDS011;25453;48.162;14.510;2023-06-22T08:40:07;6.90;;;3.08;;
39776;SDS011;25453;48.162;14.510;2023-06-22T08:42:37;7.60;;;3.40;;
39776;SDS011;25453;48.162;14.510;2023-06-22T08:45:05;7.65;;;2.53;;
39776;SDS011;25453;48.162;14.510;2023-06-22T08:47:33;6.05;;;3.20;;
39776;SDS011;25453;48.162;14.510;2023-06-22T08:50:09;7.63;;;3.70;;
39776;SDS011;25453;48.162;14.510;2023-06-22T08:52:39;7.75;;;3.67;;
39776;SDS011;25453;48.162;14.510;2023-06-22T08:55:10;6.80;;;3.53;;
39776;SDS011;25453;48.162;14.510;2023-06-22T08:57:37;5.40;;;3.10;;
39776;SDS011;25453;48.162;14.510;2023-06-22T09:00:09;7.60;;;3.00;;
39776;SDS011;25453;48.162;14.510;2023-06-22T09:02:47;9.38;;;3.30;;
39776;SDS011;25453;48.162;14.510;2023-06-22T09:05:16;6.18;;;3.05;;
39776;SDS011;25453;48.162;14.510;2023-06-22T09:07:44;7.45;;;3.80;;
39776;SDS011;25453;48.162;14.510;2023-06-22T09:10:11;6.78;;;3.55;;
39776;SDS011;25453;48.162;14.510;2023-06-22T09:12:39;7.25;;;3.58;;
39776;SDS011;25453;48.162;14.510;2023-06-22T09:15:06;7.35;;;3.47;;
39776;SDS011;25453;48.162;14.510;2023-06-22T09:17:40;9.38;;;3.40;;
39776;SDS011;25453;48.162;14.510;2023-06-22T09:20:08;9.88;;;3.97;;
39776;SDS011;25453;48.162;14.510;2023-06-22T09:22:37;8.25;;;4.28;;
39776;SDS011;25453;48.162;14.510;2023-06-22T09:25:08;6.22;;;3.40;;
39776;SDS011;25453;48.162;14.510;2023-06-22T09:27:36;8.65;;;3.78;;
39776;SDS011;25453;48.162;14.510;2023-06-22T09:30:03;9.00;;;4.30;;
39776;SDS011;25453;48.162;14.510;2023-06-22T09:32:31;7.18;;;3.50;;
39776;SDS011;25453;48.162;14.510;2023-06-22T09:34:58;9.30;;;3.42;;
39776;SDS011;25453;48.162;14.510;2023-06-22T09:37:29;8.80;;;3.90;;
39776;SDS011;25453;48.162;14.510;2023-06-22T09:39:56;8.55;;;4.18;;
39776;SDS011;25453;48.162;14.510;2023-06-22T09:42:23;7.22;;;3.30;;
39776;SDS011;25453;48.162;14.510;2023-06-22T09:44:50;7.95;;;3.88;;
39776;SDS011;25453;48.162;14.510;2023-06-22T09:47:17;5.28;;;3.47;;
39776;SDS011;25453;48.162;14.510;2023-06-22T09:49:45;11.10;;;3.50;;
39776;SDS011;25453;48.162;14.510;2023-06-22T09:52:14;8.20;;;3.20;;
39776;SDS011;25453;48.162;14.510;2023-06-22T09:54:42;12.00;;;3.70;;
39776;SDS011;25453;48.162;14.510;2023-06-22T09:57:09;8.18;;;4.15;;
39776;SDS011;25453;48.162;14.510;2023-06-22T09:59:36;7.50;;;3.67;;
39776;SDS011;25453;48.162;14.510;2023-06-22T10:02:04;9.45;;;3.90;;
39776;SDS011;25453;48.162;14.510;2023-06-22T10:04:34;9.02;;;3.17;;
39776;SDS011;25453;48.162;14.510;2023-06-22T10:07:02;9.02;;;3.65;;
39776;SDS011;25453;48.162;14.510;2023-06-22T10:09:30;8.70;;;3.42;;
39776;SDS011;25453;48.162;14.510;2023-06-22T10:11:57;8.05;;;3.70;;
39776;SDS011;25453;48.162;14.510;2023-06-22T10:14:24;6.85;;;3.58;;
39776;SDS011;25453;48.162;14.510;2023-06-22T10:16:53;8.60;;;3.60;;
39776;SDS011;25453;48.162;14.510;2023-06-22T10:19:24;7.78;;;3.10;;
39776;SDS011;25453;48.162;14.510;2023-06-22T10:21:55;7.20;;;4.00;;
39776;SDS011;25453;48.162;14.510;2023-06-22T10:24:22;6.75;;;3.85;;
39776;SDS011;25453;48.162;14.510;2023-06-22T10:26:49;6.90;;;4.00;;
39776;SDS011;25453;48.162;14.510;2023-06-22T10:29:17;7.68;;;3.08;;
39776;SDS011;25453;48.162;14.510;2023-06-22T10:31:44;5.45;;;2.95;;
39776;SDS011;25453;48.162;14.510;2023-06-22T10:34:11;6.63;;;3.13;;
39776;SDS011;25453;48.162;14.510;2023-06-22T10:36:39;6.45;;;2.78;;
39776;SDS011;25453;48.162;14.510;2023-06-22T10:39:06;7.72;;;4.22;;
39776;SDS011;25453;48.162;14.510;2023-06-22T10:41:34;8.20;;;3.28;;
39776;SDS011;25453;48.162;14.510;2023-06-22T10:44:02;7.15;;;3.10;;
39776;SDS011;25453;48.162;14.510;2023-06-22T10:46:29;7.53;;;3.53;;
39776;SDS011;25453;48.162;14.510;2023-06-22T10:48:57;6.13;;;3.30;;
39776;SDS011;25453;48.162;14.510;2023-06-22T10:51:26;6.15;;;3.33;;
39776;SDS011;25453;48.162;14.510;2023-06-22T10:53:55;7.95;;;3.30;;
39776;SDS011;25453;48.162;14.510;2023-06-22T10:56:25;6.15;;;3.22;;
39776;SDS011;25453;48.162;14.510;2023-06-22T10:58:52;9.60;;;4.38;;
39776;SDS011;25453;48.162;14.510;2023-06-22T11:01:20;8.07;;;3.65;;
39776;SDS011;25453;48.162;14.510;2023-06-22T11:04:02;7.90;;;3.80;;
39776;SDS011;25453;48.162;14.510;2023-06-22T11:06:31;9.18;;;4.20;;
39776;SDS011;25453;48.162;14.510;2023-06-22T11:08:58;10.73;;;3.63;;
39776;SDS011;25453;48.162;14.510;2023-06-22T11:11:37;7.30;;;3.30;;
39776;SDS011;25453;48.162;14.510;2023-06-22T11:14:04;6.38;;;3.58;;
39776;SDS011;25453;48.162;14.510;2023-06-22T11:16:32;5.00;;;2.72;;
39776;SDS011;25453;48.162;14.510;2023-06-22T11:19:01;7.57;;;3.38;;
39776;SDS011;25453;48.162;14.510;2023-06-22T11:21:29;5.47;;;3.25;;
39776;SDS011;25453;48.162;14.510;2023-06-22T11:23:58;7.28;;;3.10;;
39776;SDS011;25453;48.162;14.510;2023-06-22T11:26:26;8.48;;;3.97;;
39776;SDS011;25453;48.162;14.510;2023-06-22T11:28:56;9.95;;;3.88;;
39776;SDS011;25453;48.162;14.510;2023-06-22T11:31:24;9.88;;;4.22;;
39776;SDS011;25453;48.162;14.510;2023-06-22T11:33:52;8.90;;;4.15;;
39776;SDS011;25453;48.162;14.510;2023-06-22T11:36:19;6.95;;;3.63;;
39776;SDS011;25453;48.162;14.510;2023-06-22T11:38:47;8.55;;;4.28;;
39776;SDS011;25453;48.162;14.510;2023-06-22T11:41:14;7.60;;;4.05;;
39776;SDS011;25453;48.162;14.510;2023-06-22T11:43:41;10.18;;;5.07;;
39776;SDS011;25453;48.162;14.510;2023-06-22T11:46:09;12.95;;;5.45;;
39776;SDS011;25453;48.162;14.510;2023-06-22T11:48:37;8.40;;;3.83;;
39776;SDS011;25453;48.162;14.510;2023-06-22T11:51:04;6.75;;;4.03;;
39776;SDS011;25453;48.162;14.510;2023-06-22T11:53:33;9.98;;;4.82;;
39776;SDS011;25453;48.162;14.510;2023-06-22T11:56:00;8.63;;;3.97;;
39776;SDS011;25453;48.162;14.510;2023-06-22T11:58:28;8.45;;;4.30;;
39776;SDS011;25453;48.162;14.510;2023-06-22T12:00:55;9.35;;;4.47;;
39776;SDS011;25453;48.162;14.510;2023-06-22T12:03:23;7.10;;;3.95;;
39776;SDS011;25453;48.162;14.510;2023-06-22T12:05:50;7.40;;;3.63;;
39776;SDS011;25453;48.162;14.510;2023-06-22T12:08:20;6.78;;;3.67;;
39776;SDS011;25453;48.162;14.510;2023-06-22T12:10:49;7.72;;;4.30;;
39776;SDS011;25453;48.162;14.510;2023-06-22T12:13:17;9.43;;;4.88;;
39776;SDS011;25453;48.162;14.510;2023-06-22T12:15:44;7.47;;;4.45;;
39776;SDS011;25453;48.162;14.510;2023-06-22T12:18:12;9.85;;;4.47;;
39776;SDS011;25453;48.162;14.510;2023-06-22T12:20:41;8.02;;;4.22;;
39776;SDS011;25453;48.162;14.510;2023-06-22T12:23:08;9.93;;;4.82;;
39776;SDS011;25453;48.162;14.510;2023-06-22T12:25:36;6.72;;;4.63;;
39776;SDS011;25453;48.162;14.510;2023-06-22T12:28:04;6.68;;;4.25;;
39776;SDS011;25453;48.162;14.510;2023-06-22T12:30:34;8.13;;;4.15;;
39776;SDS011;25453;48.162;14.510;2023-06-22T12:33:01;7.88;;;4.38;;
39776;SDS011;25453;48.162;14.510;2023-06-22T12:35:29;8.95;;;4.45;;
39776;SDS011;25453;48.162;14.510;2023-06-22T12:37:56;7.80;;;4.22;;
39776;SDS011;25453;48.162;14.510;2023-06-22T12:40:23;6.50;;;3.92;;
39776;SDS011;25453;48.162;14.510;2023-06-22T12:42:51;8.82;;;4.22;;
39776;SDS011;25453;48.162;14.510;2023-06-22T12:45:21;10.50;;;4.72;;
39776;SDS011;25453;48.162;14.510;2023-06-22T12:47:49;7.15;;;3.63;;
39776;SDS011;25453;48.162;14.510;2023-06-22T12:50:17;8.23;;;4.20;;
39776;SDS011;25453;48.162;14.510;2023-06-22T12:52:44;7.63;;;4.63;;
39776;SDS011;25453;48.162;14.510;2023-06-22T12:55:11;20.90;;;3.95;;
39776;SDS011;25453;48.162;14.510;2023-06-22T12:57:38;10.10;;;4.28;;
39776;SDS011;25453;48.162;14.510;2023-06-22T13:00:06;7.75;;;3.85;;
39776;SDS011;25453;48.162;14.510;2023-06-22T13:02:36;8.68;;;4.45;;
39776;SDS011;25453;48.162;14.510;2023-06-22T13:05:04;12.85;;;4.97;;
39776;SDS011;25453;48.162;14.510;2023-06-22T13:07:35;8.15;;;4.05;;
39776;SDS011;25453;48.162;14.510;2023-06-22T13:10:02;6.18;;;3.90;;
39776;SDS011;25453;48.162;14.510;2023-06-22T13:12:30;6.03;;;3.70;;
39776;SDS011;25453;48.162;14.510;2023-06-22T13:14:57;6.82;;;3.45;;
39776;SDS011;25453;48.162;14.510;2023-06-22T13:17:28;7.95;;;3.88;;
39776;SDS011;25453;48.162;14.510;2023-06-22T13:19:56;11.95;;;4.70;;
39776;SDS011;25453;48.162;14.510;2023-06-22T13:22:30;11.13;;;5.00;;
39776;SDS011;25453;48.162;14.510;2023-06-22T13:25:09;13.10;;;5.05;;
39776;SDS011;25453;48.162;14.510;2023-06-22T13:27:40;12.15;;;4.93;;
39776;SDS011;25453;48.162;14.510;2023-06-22T13:30:08;8.25;;;5.43;;
39776;SDS011;25453;48.162;14.510;2023-06-22T13:32:40;9.43;;;5.32;;
39776;SDS011;25453;48.162;14.510;2023-06-22T13:35:09;9.20;;;5.13;;
39776;SDS011;25453;48.162;14.510;2023-06-22T13:37:37;9.95;;;5.10;;
39776;SDS011;25453;48.162;14.510;2023-06-22T13:40:05;8.65;;;6.03;;
39776;SDS011;25453;48.162;14.510;2023-06-22T13:42:37;8.25;;;4.93;;
39776;SDS011;25453;48.162;14.510;2023-06-22T13:45:04;11.55;;;5.60;;
39776;SDS011;25453;48.162;14.510;2023-06-22T13:47:33;8.35;;;5.35;;
39776;SDS011;25453;48.162;14.510;2023-06-22T13:50:03;9.15;;;5.05;;
39776;SDS011;25453;48.162;14.510;2023-06-22T13:52:31;11.27;;;5.18;;
39776;SDS011;25453;48.162;14.510;2023-06-22T13:54:58;13.27;;;5.97;;
39776;SDS011;25453;48.162;14.510;2023-06-22T13:57:25;10.65;;;6.15;;
39776;SDS011;25453;48.162;14.510;2023-06-22T13:59:53;11.40;;;5.75;;
39776;SDS011;25453;48.162;14.510;2023-06-22T14:02:20;10.32;;;6.10;;
39776;SDS011;25453;48.162;14.510;2023-06-22T14:04:48;9.98;;;5.38;;
39776;SDS011;25453;48.162;14.510;2023-06-22T14:07:15;12.60;;;5.97;;
39776;SDS011;25453;48.162;14.510;2023-06-22T14:09:42;11.88;;;5.95;;
39776;SDS011;25453;48.162;14.510;2023-06-22T14:12:10;11.70;;;5.63;;
39776;SDS011;25453;48.162;14.510;2023-06-22T14:14:38;8.07;;;5.03;;
39776;SDS011;25453;48.162;14.510;2023-06-22T14:17:06;10.27;;;5.00;;
39776;SDS011;25453;48.162;14.510;2023-06-22T14:19:33;11.05;;;6.00;;
39776;SDS011;25453;48.162;14.510;2023-06-22T14:22:00;8.60;;;4.95;;
39776;SDS011;25453;48.162;14.510;2023-06-22T14:24:28;12.70;;;5.65;;
39776;SDS011;25453;48.162;14.510;2023-06-22T14:26:56;11.25;;;5.97;;
39776;SDS011;25453;48.162;14.510;2023-06-22T14:29:24;13.82;;;6.43;;
39776;SDS011;25453;48.162;14.510;2023-06-22T14:31:52;16.63;;;6.72;;
39776;SDS011;25453;48.162;14.510;2023-06-22T14:34:19;11.82;;;6.15;;
39776;SDS011;25453;48.162;14.510;2023-06-22T14:36:47;10.43;;;5.72;;
39776;SDS011;25453;48.162;14.510;2023-06-22T14:39:14;11.10;;;6.28;;
39776;SDS011;25453;48.162;14.510;2023-06-22T14:41:41;10.73;;;5.95;;
39776;SDS011;25453;48.162;14.510;2023-06-22T14:44:08;13.05;;;6.05;;
39776;SDS011;25453;48.162;14.510;2023-06-22T14:46:36;10.55;;;5.82;;